Latest Weather Observations for Dunalley

IDT60801

Issued at 10:01 pm EST Saturday 5 September 2015 (issued every 30 minutes, with the page automatically refreshed every 10 minutes)

About weather observations | Map of weather stations | Latest weather observations for TAS | Other Formats
Station Details ID: 094254 Name: DUNALLEY (STROUD POINT) Lat: -42.90 Lon: 147.79 Height: 12.43 m
Data from the previous 72 hours. | See also: Recent months at Dunalley
Date/Time
EST
Temp
°C
App
Temp
°C
Dew
Point
Rel
Hum
%
Delta-T
°C
Wind Press
QNH
hPa
Press
MSL
hPa
Rain
since 9 am
mm
Dir
 
Spd
km/h
Gust
km/h
Spd
kts
Gust
kts
05/10:00pm 7.0 4.7 2.5 73 1.8 ESE 4 6 2 3 1025.5 1025.6 0.4
05/09:30pm 7.7 4.7 2.2 68 2.3 ESE 7 9 4 5 1025.5 1025.6 0.4
05/09:00pm 7.8 5.4 1.9 66 2.4 ESE 4 6 2 3 1025.5 1025.6 0.4
05/08:30pm 7.9 5.0 1.7 65 2.5 ESE 6 11 3 6 1025.2 1025.3 0.4
05/08:00pm 7.9 5.2 2.4 68 2.3 SE 6 7 3 4 1024.9 1025.0 0.4
05/07:30pm 7.9 5.2 2.8 70 2.1 SE 6 9 3 5 1024.6 1024.7 0.4
05/07:00pm 7.8 4.5 2.5 69 2.2 SE 9 13 5 7 1024.3 1024.4 0.4
05/06:30pm 8.1 4.5 3.0 70 2.2 SE 11 17 6 9 1024.1 1024.2 0.4
05/06:00pm 8.4 5.6 3.1 69 2.2 SE 7 9 4 5 1023.9 1024.0 0.4
05/05:30pm 8.6 5.1 3.4 70 2.2 SSE 11 13 6 7 1023.5 1023.6 0.4
05/05:00pm 8.8 4.6 3.8 71 2.2 SSE 15 19 8 10 1023.3 1023.4 0.4
05/04:30pm 8.8 4.1 3.4 69 2.3 SSE 17 20 9 11 1022.9 1023.0 0.4
05/04:00pm 9.1 4.6 4.1 71 2.2 S 17 20 9 11 1022.8 1022.9 0.4
05/03:30pm 9.3 4.7 3.9 69 2.4 SSE 17 22 9 12 1022.7 1022.8 0.4
05/03:00pm 10.3 5.8 4.2 66 2.7 SSE 17 20 9 11 1022.6 1022.7 0.4
05/02:30pm 9.6 4.7 4.2 69 2.4 SSE 19 24 10 13 1022.4 1022.5 0.4
05/02:00pm 9.6 6.6 4.2 69 2.4 SSE 9 13 5 7 1022.4 1022.5 0.4
05/01:30pm 9.6 5.1 4.4 70 2.3 SSE 17 20 9 11 1022.2 1022.3 0.4
05/01:00pm 10.1 7.2 4.5 68 2.5 SSE 9 13 5 7 1022.3 1022.4 0.4
05/12:30pm 9.3 4.9 4.9 74 2.0 S 17 24 9 13 1022.5 1022.6 0.4
05/12:00pm 8.8 5.4 5.7 81 1.4 SW 13 17 7 9 1022.6 1022.7 0.4
05/11:30am 8.8 6.3 6.6 86 1.0 SW 9 13 5 7 1022.6 1022.7 0.4
05/11:00am 7.9 3.9 6.5 91 0.6 SW 17 22 9 12 1022.6 1022.7 0.4
05/10:30am 8.8 4.5 7.1 89 0.8 W 19 20 10 11 1022.3 1022.4 0.2
05/10:00am 7.9 3.0 6.7 92 0.6 WSW 22 28 12 15 1022.3 1022.4 0.2
05/09:30am 8.6 4.3 7.1 90 0.7 W 19 22 10 12 1022.1 1022.2 0.0
05/09:00am 7.9 2.6 6.7 92 0.6 WSW 24 30 13 16 1021.9 1022.0 0.4
05/08:30am 7.7 2.7 6.3 91 0.6 WSW 22 26 12 14 1021.6 1021.7 0.2
05/08:00am 7.9 2.2 6.8 93 0.5 WSW 26 30 14 16 1021.1 1021.2 0.0
05/07:30am 7.8 2.8 6.3 90 0.7 SW 22 28 12 15 1020.8 1020.9 0.0
05/07:00am 8.2 0.9 5.5 83 1.2 WSW 33 39 18 21 1020.1 1020.2 0.0
05/06:30am 8.1 0.8 5.6 84 1.1 WSW 33 41 18 22 1019.6 1019.7 0.0
05/06:00am 8.2 1.4 5.3 82 1.3 WSW 30 35 16 19 1019.2 1019.3 0.0
05/05:30am 8.7 3.1 5.3 79 1.5 WSW 24 32 13 17 1018.7 1018.7 0.0
05/05:00am 8.4 2.4 5.5 82 1.3 SW 26 30 14 16 1018.2 1018.2 0.0
05/04:30am 8.7 1.9 5.1 78 1.6 SW 30 33 16 18 1017.7 1017.7 0.0
05/04:00am 8.9 3.6 5.1 77 1.7 SW 22 30 12 16 1017.6 1017.6 0.0
05/03:30am 8.8 2.4 5.4 79 1.5 SW 28 32 15 17 1016.9 1016.9 0.0
05/03:00am 8.9 3.3 5.5 79 1.5 SW 24 28 13 15 1016.9 1016.9 0.0
05/02:30am 9.1 2.3 5.3 77 1.7 WSW 30 35 16 19 1016.6 1016.6 0.0
05/02:00am 9.2 3.7 6.1 81 1.4 SW 24 28 13 15 1016.8 1016.8 0.0
05/01:30am 9.0 4.7 7.1 88 0.9 SW 19 24 10 13 1017.0 1017.0 0.0
05/01:00am 9.1 3.9 7.1 87 0.9 SW 24 30 13 16 1016.9 1016.9 0.0
05/12:30am 9.7 4.7 6.4 80 1.5 WSW 22 24 12 13 1016.6 1016.6 0.0
05/12:00am 9.8 4.7 5.8 76 1.8 WSW 22 26 12 14 1016.2 1016.2 0.0
 
Date/Time
EST
Temp
°C
App
Temp
°C
Dew
Point
Rel
Hum
%
Delta-T
°C
Wind Press
QNH
hPa
Press
MSL
hPa
Rain
since 9 am
mm
Dir
 
Spd
km/h
Gust
km/h
Spd
kts
Gust
kts
04/11:30pm 9.6 5.9 6.1 79 1.6 W 15 20 8 11 1016.2 1016.2 0.0
04/11:00pm 9.6 5.4 5.6 76 1.8 W 17 26 9 14 1016.0 1016.0 0.0
04/10:30pm 9.8 5.0 5.6 75 1.9 W 20 28 11 15 1016.0 1016.0 0.0
04/10:00pm 9.8 5.1 6.2 78 1.7 WSW 20 26 11 14 1015.9 1015.9 0.0
04/09:30pm 10.0 3.3 5.6 74 2.0 WSW 30 35 16 19 1015.6 1015.6 0.0
04/09:00pm 10.2 1.5 5.8 74 2.0 WSW 41 48 22 26 1015.1 1015.1 0.0
04/08:30pm 10.4 3.1 5.6 72 2.2 WSW 33 39 18 21 1015.1 1015.1 0.0
04/08:00pm 10.4 4.9 5.8 73 2.1 W 24 30 13 16 1015.2 1015.2 0.0
04/07:30pm 10.6 5.3 4.9 68 2.6 W 22 28 12 15 1015.2 1015.2 0.0
04/07:00pm 10.9 2.0 5.0 67 2.7 WSW 41 50 22 27 1014.5 1014.5 0.0
04/06:30pm 11.1 1.2 5.0 66 2.8 WSW 46 56 25 30 1014.1 1014.1 0.0
04/06:00pm 11.1 3.1 5.6 69 2.5 W 37 43 20 23 1014.1 1014.1 0.0
04/05:30pm 11.2 4.7 6.3 72 2.3 W 30 35 16 19 1014.1 1014.1 0.0
04/05:00pm 11.7 5.5 6.2 69 2.6 W 28 33 15 18 1013.9 1013.9 0.0
04/04:30pm 12.8 8.7 6.2 64 3.1 WSW 17 26 9 14 1014.0 1014.0 0.0
04/04:00pm 13.4 8.7 5.3 58 3.8 W 19 24 10 13 1013.8 1013.8 0.0
04/03:30pm 13.9 7.6 3.9 51 4.5 WNW 26 35 14 19 1013.8 1013.8 0.0
04/03:00pm 14.8 8.8 5.1 52 4.6 W 26 39 14 21 1013.9 1013.9 0.0
04/02:30pm 14.3 6.4 4.3 51 4.6 W 35 46 19 25 1013.9 1013.9 0.0
04/02:00pm 14.2 6.7 4.5 52 4.5 W 33 48 18 26 1014.0 1014.0 0.0
04/01:30pm 12.9 6.2 5.6 61 3.4 W 30 43 16 23 1014.6 1014.6 0.0
04/01:00pm 13.6 7.3 5.5 58 3.8 WSW 28 39 15 21 1014.9 1014.9 0.0
04/12:30pm 13.2 5.4 4.9 57 3.8 W 35 43 19 23 1015.2 1015.2 0.0
04/12:00pm 13.2 5.3 4.1 54 4.1 W 35 48 19 26 1015.5 1015.5 0.0
04/11:30am 13.2 5.2 3.8 53 4.2 W 35 46 19 25 1015.9 1015.9 0.0
04/11:00am 12.9 6.2 3.8 54 4.1 WNW 28 43 15 23 1016.3 1016.3 0.0
04/10:44am 12.7 6.0 3.4 53 4.1 WNW 28 46 15 25 1016.4 1016.4 0.0
04/10:30am 12.3 5.9 3.3 54 4.0 WNW 26 37 14 20 1016.6 1016.6 0.0
04/10:00am 12.0 7.0 3.5 56 3.8 WNW 19 32 10 17 1017.1 1017.1 0.0
04/09:30am 9.9 4.0 2.0 58 3.3 WNW 22 35 12 19 1017.7 1017.7 0.0
04/09:00am 9.4 4.4 1.6 58 3.2 NW 17 26 9 14 1017.7 1017.7 0.0
04/08:30am 8.6 1.5 1.1 59 3.0 WNW 28 39 15 21 1018.1 1018.1 0.0
04/08:00am 7.9 1.1 0.6 60 2.9 NW 26 37 14 20 1018.3 1018.3 0.0
04/07:30am 7.3 1.2 0.3 61 2.8 NW 22 32 12 17 1018.2 1018.2 0.0
04/07:00am 6.9 1.0 -0.8 58 2.9 NW 20 32 11 17 1018.3 1018.3 0.0
04/06:30am 6.3 0.0 -0.9 60 2.7 NW 22 32 12 17 1018.1 1018.1 0.0
04/06:00am 5.9 1.3 -1.3 60 2.7 NW 13 28 7 15 1018.5 1018.5 0.0
04/05:30am 5.0 1.5 -1.2 64 2.3 NNW 7 17 4 9 1018.4 1018.4 0.0
04/05:00am 5.2 -0.2 -1.0 64 2.3 NW 17 26 9 14 1018.5 1018.5 0.0
04/04:30am 5.4 0.1 -0.8 64 2.3 NW 17 24 9 13 1018.8 1018.8 0.0
04/04:00am 5.1 0.5 -0.9 65 2.2 NW 13 20 7 11 1018.9 1018.9 0.0
04/03:30am 5.4 0.5 -0.6 65 2.3 NW 15 22 8 12 1019.1 1019.2 0.0
04/03:00am 5.4 0.5 -0.4 66 2.2 NW 15 20 8 11 1019.2 1019.3 0.0
04/02:30am 5.5 0.6 -0.3 66 2.2 NW 15 20 8 11 1019.4 1019.5 0.0
04/02:00am 5.5 1.0 -0.1 67 2.1 NNW 13 19 7 10 1019.7 1019.8 0.0
04/01:30am 5.0 0.9 -0.2 69 2.0 NW 11 15 6 8 1020.1 1020.2 0.0
04/01:00am 5.3 0.5 -0.1 68 2.0 WNW 15 19 8 10 1020.3 1020.4 0.0
04/12:30am 5.6 0.8 0.2 68 2.1 NW 15 19 8 10 1020.4 1020.5 0.0
04/12:00am 5.6 0.9 0.6 70 1.9 NNW 15 19 8 10 1020.4 1020.5 0.0
 
Date/Time
EST
Temp
°C
App
Temp
°C
Dew
Point
Rel
Hum
%
Delta-T
°C
Wind Press
QNH
hPa
Press
MSL
hPa
Rain
since 9 am
mm
Dir
 
Spd
km/h
Gust
km/h
Spd
kts
Gust
kts
03/11:30pm 5.3 1.0 1.1 74 1.6 WNW 13 17 7 9 1020.5 1020.6 0.0
03/11:00pm 5.5 1.2 1.1 73 1.7 W 13 17 7 9 1020.5 1020.6 0.0
03/10:30pm 7.4 2.5 1.9 68 2.3 WSW 17 24 9 13 1020.4 1020.5 0.0
03/10:00pm 7.4 2.5 1.9 68 2.2 SW 17 19 9 10 1020.4 1020.5 0.0
03/09:30pm 7.4 2.1 1.7 67 2.3 SW 19 22 10 12 1020.2 1020.3 0.0
03/09:00pm 7.5 2.2 1.6 66 2.4 SW 19 22 10 12 1020.0 1020.1 0.0
03/08:30pm 7.7 1.7 1.3 64 2.6 SW 22 26 12 14 1020.0 1020.1 0.0
03/08:00pm 7.7 2.1 1.1 63 2.6 SW 20 24 11 13 1019.8 1019.9 0.0
03/07:30pm 8.0 1.7 1.8 65 2.5 SW 24 28 13 15 1019.6 1019.7 0.0
03/07:00pm 8.0 1.4 2.3 67 2.4 SSW 26 30 14 16 1019.2 1019.3 0.0
03/06:30pm 7.9 1.2 1.7 65 2.5 SSW 26 32 14 17 1018.8 1018.8 0.0
03/06:00pm 8.0 0.2 1.4 63 2.7 SSW 32 39 17 21 1018.5 1018.5 0.0
03/05:30pm 8.3 0.6 2.1 65 2.6 SSW 32 39 17 21 1018.0 1018.0 0.0
03/05:00pm 8.6 0.9 2.2 64 2.7 SSW 32 39 17 21 1017.2 1017.2 0.0
03/04:30pm 9.0 1.4 2.6 64 2.7 SSW 32 39 17 21 1016.9 1016.9 0.0
03/04:00pm 9.6 2.7 2.5 61 3.0 SSW 28 37 15 20 1016.9 1016.9 0.0
03/03:30pm 9.8 2.0 1.9 58 3.3 SSW 32 39 17 21 1016.6 1016.6 0.0
03/03:00pm 9.7 1.7 1.6 57 3.4 SSW 33 41 18 22 1016.3 1016.3 0.0
03/02:30pm 9.8 1.1 1.9 58 3.3 SSW 37 46 20 25 1016.0 1016.0 0.0
03/02:00pm 9.9 2.2 2.5 60 3.1 SSW 32 39 17 21 1015.8 1015.8 0.0
03/01:30pm 9.4 1.6 2.9 64 2.8 SSW 33 46 18 25 1015.6 1015.6 0.0
03/01:28pm 9.9 2.3 3.0 62 3.0 SSW 32 46 17 25 1015.6 1015.6 0.0
03/01:00pm 9.0 3.7 4.8 75 1.9 SW 22 28 12 15 1015.6 1015.6 0.0
03/12:30pm 8.7 0.5 4.9 77 1.7 SSW 37 48 20 26 1015.6 1015.6 0.0
03/12:00pm 9.6 2.5 3.6 66 2.6 SSW 30 37 16 20 1015.7 1015.7 0.0
03/11:56am 9.0 0.9 3.2 67 2.5 SSW 35 56 19 30 1015.7 1015.7 0.0
03/11:30am 9.7 2.6 3.7 66 2.6 SSW 30 37 16 20 1015.5 1015.5 0.0
03/11:00am 9.9 2.4 4.5 69 2.4 SSW 33 43 18 23 1015.1 1015.1 0.0
03/10:30am 9.1 0.9 2.7 64 2.7 SSW 35 43 19 23 1014.6 1014.6 0.0
03/10:00am 9.4 1.3 3.2 65 2.7 SW 35 44 19 24 1014.5 1014.5 0.0
03/09:30am 9.2 0.6 4.6 73 2.0 SSW 39 48 21 26 1014.3 1014.3 0.0
03/09:00am 9.1 3.7 4.3 72 2.1 SW 22 32 12 17 1014.0 1014.0 1.0
03/08:30am 9.0 3.2 4.6 74 1.9 SSW 24 33 13 18 1013.5 1013.5 1.0
03/08:00am 8.8 3.6 5.7 81 1.4 SSW 22 28 12 15 1013.1 1013.1 1.0
03/07:30am 8.5 0.4 5.4 81 1.4 SW 37 48 20 26 1012.3 1012.3 1.0
03/07:00am 8.3 2.6 6.9 91 0.7 SSW 26 30 14 16 1011.7 1011.7 1.0
03/06:30am 8.5 2.0 6.6 88 0.9 SW 30 35 16 19 1011.2 1011.2 0.8
03/06:00am 8.8 1.8 6.1 83 1.2 SW 32 39 17 21 1010.3 1010.3 0.8
03/05:30am 8.8 4.2 6.3 84 1.1 SW 20 24 11 13 1010.1 1010.1 0.8
03/05:00am 8.2 6.2 6.3 88 0.9 SW 6 9 3 5 1009.9 1009.9 0.8
03/04:30am 8.3 6.3 6.4 88 0.9 SW 6 7 3 4 1009.7 1009.7 0.8
03/04:00am 8.5 5.3 6.8 89 0.8 SW 13 19 7 10 1009.6 1009.6 0.8
03/03:30am 8.6 2.7 7.7 94 0.4 SSW 28 35 15 19 1009.1 1009.1 0.8
03/03:28am 8.6 2.7 7.7 94 0.4 SSW 28 35 15 19 1009.0 1009.0 0.8
03/03:00am 8.4 6.0 7.2 92 0.6 W 9 15 5 8 1009.0 1009.0 0.8
03/02:30am 8.2 4.7 7.4 95 0.4 W 15 17 8 9 1008.9 1008.9 0.8
03/02:00am 8.3 6.5 7.2 93 0.5 W 6 9 3 5 1008.7 1008.7 0.8
03/01:30am 8.3 6.5 7.2 93 0.5 W 6 7 3 4 1008.6 1008.6 0.8
03/01:00am 8.3 7.2 7.1 92 0.6 W 2 4 1 2 1008.6 1008.6 0.6
03/12:30am 8.2 6.7 6.8 91 0.6 W 4 4 2 2 1008.7 1008.7 0.6
03/12:00am 7.8 5.7 6.7 93 0.5 W 7 9 4 5 1008.7 1008.7 0.6
 
Date/Time
EST
Temp
°C
App
Temp
°C
Dew
Point
Rel
Hum
%
Delta-T
°C
Wind Press
QNH
hPa
Press
MSL
hPa
Rain
since 9 am
mm
Dir
 
Spd
km/h
Gust
km/h
Spd
kts
Gust
kts
02/11:30pm 7.7 5.7 6.3 91 0.6 W 6 6 3 3 1008.8 1008.8 0.4
02/11:00pm 8.3 5.7 6.3 87 0.9 W 9 13 5 7 1009.1 1009.1 0.4
02/10:30pm 8.3 7.4 6.1 86 1.0 CALM 0 0 0 0 1009.3 1009.3 0.2

Other Formats:

Comma delimited format used in spreadsheet applications
http://www.bom.gov.au/fwo/IDT60801/IDT60801.94951.axf

JavaScript Object Notation format (JSON) in row-major order
http://www.bom.gov.au/fwo/IDT60801/IDT60801.94951.json